Portada
METAR-TAF:

METAR-TAF

Aeroports :

Peshawar, Pakistan

latitud: 34-01N, longitud: 071-35E, altitud: 359 m

Observació

L'informe es va fer fa 25 minuts, a les 12:00 UTC
Vent 4 kt del Sud-Oest
Temperatura 26°C
Humitat 23%
Pressió 1018 hPa
Visibilitat 10 km o més
Núvols disperses a una alçada de 20000 ft

METAR: OPPS 171200Z 23004KT 9999 SCT200 26/03 Q1018

Hora: 17:25 (12:25 UTC)

Pronòstic

L'informe es va fer fa 2 hores i 1 minuts, a les 10:24 UTC
Pronòstic vàlid del 17 a les 12 UTC al 18 a les 18 UTC
Vent 15 kt del Sud/Sud-Oest
Visibilitat: 5000 m
Escasses núvols a una alçada de 10000 ft
Núvols disperses a una alçada de 20000 ft
calitja
Temporalment
l' 18 a les 02 UTC al 18 a les 05 UTC
Visibilitat: 3000 m
Temporalment
l' 18 a les 13 UTC al 18 a les 15 UTC
Visibilitat: 4000 m

TAF: OPPS 171024Z 1712/1818 21015KT 5000 HZ FEW100 SCT200 TEMPO 1802/1805 3000 TEMPO 1813/1815 4000

Observacions i pronòstics meteorològics de més de 4000 aeroports (METAR i TAF).

Les estacions disponibles són els punts grocs i vermells al mapa.

Posi el ratolí al punt desitjat per veure el nom de l'estació.

Feu clic per veure les observacions i els pronòstics meteorològics.

Per canviar el mapa: feu clic els botons verds amb una creu de color negre per apropar; al botó verd amb un guió per allunyar la imatge; o en les fletxes verdes per a mapes adjacents.


METAR-TAF: